createdAt,value
2023-01-25T00:02:15.102Z,101123.81
2023-01-25T00:04:41.681Z,101111.31
2023-01-25T00:07:08.197Z,101115.06
2023-01-25T00:09:34.810Z,101114.13
2023-01-25T00:12:01.408Z,101104.81
2023-01-25T00:14:27.958Z,101107.63
2023-01-25T00:16:54.850Z,101105.84
2023-01-25T00:19:21.466Z,101098.06
2023-01-25T00:21:48.182Z,101099.25
2023-01-25T00:24:15.048Z,101102.78
2023-01-25T00:26:44.081Z,101098.47
2023-01-25T00:29:14.372Z,101105.31
2023-01-25T00:32:08.749Z,101104.31
2023-01-25T00:34:42.629Z,101095.28
2023-01-25T00:37:18.099Z,101093.28
2023-01-25T00:39:44.620Z,101098.78
2023-01-25T00:42:11.489Z,101102.78
2023-01-25T00:44:39.480Z,101094.53
2023-01-25T00:47:06.739Z,101096.22
2023-01-25T00:49:33.682Z,101093.75
2023-01-25T00:52:00.572Z,101090.50
2023-01-25T00:54:27.322Z,101088.72
2023-01-25T00:56:55.131Z,101087.19
2023-01-25T00:59:22.578Z,101079.69
2023-01-25T01:01:49.666Z,101084.41
2023-01-25T01:04:16.204Z,101078.13
2023-01-25T01:06:43.430Z,101084.13
2023-01-25T01:09:15.578Z,101077.38
2023-01-25T01:11:42.773Z,101075.13
2023-01-25T01:14:10.463Z,101076.41
2023-01-25T01:16:37.024Z,101076.09
2023-01-25T01:19:03.949Z,101081.56
2023-01-25T01:21:30.592Z,101078.44
2023-01-25T01:23:57.288Z,101075.25
2023-01-25T01:26:23.962Z,101085.56
2023-01-25T01:28:50.667Z,101074.53
2023-01-25T01:31:20.338Z,101076.34
2023-01-25T01:33:54.586Z,101091.66
2023-01-25T01:36:23.551Z,101088.19
2023-01-25T01:38:50.350Z,101085.47
2023-01-25T01:41:17.990Z,101089.75
2023-01-25T01:43:45.360Z,101085.19
2023-01-25T01:46:14.617Z,101089.66
2023-01-25T01:48:44.605Z,101089.19
2023-01-25T01:51:32.354Z,101079.72
2023-01-25T01:54:08.212Z,101089.97
2023-01-25T01:56:40.661Z,101084.06
2023-01-25T01:59:08.750Z,101088.44
2023-01-25T02:04:11.670Z,101077.84
2023-01-25T02:07:01.866Z,101087.34
2023-01-25T02:09:31.993Z,101081.28
2023-01-25T02:11:59.908Z,101084.03
2023-01-25T02:14:29.065Z,101084.13
2023-01-25T02:16:56.236Z,101080.16
2023-01-25T02:19:41.153Z,101084.91
2023-01-25T02:22:10.839Z,101076.34
2023-01-25T02:24:39.865Z,101073.09
2023-01-25T02:27:06.599Z,101070.81
2023-01-25T02:29:33.651Z,101069.84
2023-01-25T02:32:03.692Z,101071.66
2023-01-25T02:34:30.325Z,101069.31
2023-01-25T02:36:57.561Z,101068.81
2023-01-25T02:39:26.685Z,101074.09
2023-01-25T02:41:53.834Z,101064.16
2023-01-25T02:44:25.224Z,101057.13
2023-01-25T02:46:51.894Z,101066.13
2023-01-25T02:49:18.742Z,101049.16
2023-01-25T02:51:47.947Z,101046.88
2023-01-25T02:54:16.126Z,101041.84
2023-01-25T02:56:42.858Z,101050.66
2023-01-25T02:59:10.733Z,101038.63
2023-01-25T03:01:39.808Z,101045.63
2023-01-25T03:04:07.324Z,101052.16
2023-01-25T03:06:35.597Z,101040.41
2023-01-25T03:09:04.278Z,101046.63
2023-01-25T03:11:30.892Z,101037.03
2023-01-25T03:13:57.540Z,101033.59
2023-01-25T03:16:24.272Z,101038.28
2023-01-25T03:18:54.847Z,101037.59
2023-01-25T03:21:22.900Z,101032.84
2023-01-25T03:23:56.075Z,101033.59
2023-01-25T03:26:23.983Z,101022.78
2023-01-25T03:28:50.532Z,101022.28
2023-01-25T03:31:17.861Z,101012.22
2023-01-25T03:33:44.693Z,101010.53
2023-01-25T03:36:11.332Z,101005.47
2023-01-25T03:38:38.032Z,101002.97
2023-01-25T03:41:05.001Z,101011.00
2023-01-25T03:43:31.526Z,101012.41
2023-01-25T03:46:00.911Z,101015.97
2023-01-25T03:48:28.804Z,101009.03
2023-01-25T03:50:58.376Z,101004.75
2023-01-25T03:53:29.150Z,101004.97
2023-01-25T03:56:09.879Z,100999.72
2023-01-25T03:58:38.388Z,101003.72
2023-01-25T04:01:06.894Z,100991.88
2023-01-25T04:03:34.052Z,100991.19
2023-01-25T04:06:01.008Z,100983.38
2023-01-25T04:08:28.157Z,100991.16
2023-01-25T04:10:57.200Z,100994.38
2023-01-25T04:13:24.994Z,100983.94
2023-01-25T04:15:51.824Z,100966.41
2023-01-25T04:18:18.490Z,100975.13
2023-01-25T04:20:45.510Z,100968.13
2023-01-25T04:23:12.469Z,100975.34
2023-01-25T04:25:39.411Z,100978.84
2023-01-25T04:28:06.013Z,100982.84
2023-01-25T04:30:32.588Z,100976.97
2023-01-25T04:33:05.820Z,100973.81
2023-01-25T04:35:32.489Z,100971.41
2023-01-25T04:37:59.959Z,100966.13
2023-01-25T04:40:26.857Z,100963.59
2023-01-25T04:42:53.390Z,100959.84
2023-01-25T04:45:20.028Z,100957.66
2023-01-25T04:47:46.597Z,100962.41
2023-01-25T04:50:13.201Z,100960.91
2023-01-25T04:52:39.796Z,100961.16
2023-01-25T04:55:06.629Z,100959.16
2023-01-25T04:57:34.191Z,100960.13
2023-01-25T05:00:00.942Z,100970.66
2023-01-25T05:02:28.108Z,100967.22
2023-01-25T05:04:54.775Z,100967.69
2023-01-25T05:07:21.356Z,100975.47
2023-01-25T05:09:48.159Z,100972.47
2023-01-25T05:12:14.699Z,100983.25
2023-01-25T05:14:41.293Z,100969.91
2023-01-25T05:17:08.589Z,100963.88
2023-01-25T05:19:35.721Z,100964.59
2023-01-25T05:22:07.376Z,100962.56
2023-01-25T05:24:35.495Z,100967.69
2023-01-25T05:27:05.677Z,100965.84
2023-01-25T05:29:36.461Z,100966.59
2023-01-25T05:32:05.841Z,100964.06
2023-01-25T05:34:32.796Z,100971.94
2023-01-25T05:36:59.828Z,100979.94
2023-01-25T05:39:26.481Z,100971.03
2023-01-25T05:41:53.323Z,100979.84
2023-01-25T05:44:19.992Z,100978.47
2023-01-25T05:46:46.823Z,100979.72
2023-01-25T05:49:13.671Z,100978.22
2023-01-25T05:51:40.629Z,100981.06
2023-01-25T05:54:09.503Z,100974.22
2023-01-25T05:56:36.082Z,100980.84
2023-01-25T05:59:02.779Z,100983.38
2023-01-25T06:01:29.895Z,100987.50
2023-01-25T06:03:56.586Z,100973.72
2023-01-25T06:06:23.891Z,100975.41
2023-01-25T06:08:50.876Z,100967.22
2023-01-25T06:11:22.826Z,100963.19
2023-01-25T06:13:50.247Z,100962.63
2023-01-25T06:16:18.123Z,100952.00
2023-01-25T06:18:45.404Z,100950.53
2023-01-25T06:21:12.067Z,100951.81
2023-01-25T06:23:38.840Z,100959.75
2023-01-25T06:26:08.464Z,100963.56
2023-01-25T06:28:36.448Z,100953.00
2023-01-25T06:31:13.777Z,100952.56
2023-01-25T06:33:42.489Z,100944.56
2023-01-25T06:36:14.444Z,100954.16
2023-01-25T06:38:41.744Z,100949.59
2023-01-25T06:41:12.124Z,100961.38
2023-01-25T06:43:39.254Z,100952.06
2023-01-25T06:46:08.253Z,100956.88
2023-01-25T06:48:35.573Z,100945.84
2023-01-25T06:51:07.457Z,100951.03
2023-01-25T06:53:36.653Z,100945.38
2023-01-25T06:56:15.192Z,100947.59
2023-01-25T06:58:41.890Z,100948.66
2023-01-25T07:01:20.706Z,100940.53
2023-01-25T07:03:53.033Z,100944.53
2023-01-25T07:06:20.204Z,100940.19
2023-01-25T07:08:47.628Z,100932.94
2023-01-25T07:11:14.987Z,100945.94
2023-01-25T07:13:43.446Z,100943.19
2023-01-25T07:16:14.141Z,100941.63
2023-01-25T07:18:42.275Z,100948.66
2023-01-25T07:21:14.793Z,100943.44
2023-01-25T07:23:41.916Z,100944.88
2023-01-25T07:26:17.862Z,100948.53
2023-01-25T07:28:46.265Z,100942.69
2023-01-25T07:31:13.067Z,100948.72
2023-01-25T07:33:39.942Z,100939.19
2023-01-25T07:36:08.637Z,100946.78
2023-01-25T07:38:36.393Z,100949.88
2023-01-25T07:41:04.069Z,100944.66
2023-01-25T07:43:31.113Z,100942.09
2023-01-25T07:46:06.594Z,100944.97
2023-01-25T07:48:33.967Z,100942.53
2023-01-25T07:51:22.971Z,100945.22
2023-01-25T07:53:52.476Z,100944.16
2023-01-25T07:56:20.291Z,100953.69
2023-01-25T07:58:47.639Z,100948.03
2023-01-25T08:01:16.702Z,100945.72
2023-01-25T08:03:44.067Z,100946.22
2023-01-25T08:06:11.208Z,100948.06
2023-01-25T08:08:46.676Z,100933.22
2023-01-25T08:11:17.384Z,100940.00
2023-01-25T08:13:47.352Z,100942.75
2023-01-25T08:16:15.525Z,100938.09
2023-01-25T08:18:42.326Z,100934.59
2023-01-25T08:21:09.193Z,100932.06
2023-01-25T08:23:35.935Z,100934.47
2023-01-25T08:26:06.888Z,100931.53
2023-01-25T08:28:33.644Z,100924.53
2023-01-25T08:31:10.461Z,100925.66
2023-01-25T08:33:37.257Z,100922.28
2023-01-25T08:36:05.045Z,100925.19
2023-01-25T08:38:32.272Z,100917.69
2023-01-25T08:41:10.016Z,100917.50
2023-01-25T08:43:37.796Z,100920.25
2023-01-25T08:46:04.984Z,100916.94
2023-01-25T08:48:31.809Z,100909.94
2023-01-25T08:50:58.784Z,100912.44
2023-01-25T08:53:27.720Z,100909.16
2023-01-25T08:55:54.484Z,100909.91
2023-01-25T08:58:22.575Z,100916.78
2023-01-25T09:00:49.677Z,100913.19
2023-01-25T09:03:18.221Z,100910.66
2023-01-25T09:05:45.078Z,100909.97
2023-01-25T09:08:11.808Z,100914.69
2023-01-25T09:10:38.413Z,100922.66
2023-01-25T09:13:07.557Z,100922.69
2023-01-25T09:15:35.036Z,100928.28
2023-01-25T09:18:01.641Z,100920.09
2023-01-25T09:20:29.459Z,100938.53
2023-01-25T09:22:59.469Z,100926.03
2023-01-25T09:25:26.046Z,100920.44
2023-01-25T09:27:52.828Z,100915.00
2023-01-25T09:30:19.716Z,100920.50
2023-01-25T09:32:49.803Z,100919.75
2023-01-25T09:35:17.129Z,100930.81
2023-01-25T09:37:43.825Z,100922.84
2023-01-25T09:40:38.952Z,100923.09
2023-01-25T09:43:11.762Z,100919.09
2023-01-25T09:45:38.454Z,100914.34
2023-01-25T09:48:30.907Z,100916.34
2023-01-25T09:51:19.939Z,100903.59
2023-01-25T09:53:52.366Z,100912.34
2023-01-25T09:56:27.835Z,100907.06
2023-01-25T09:58:59.339Z,100901.81
2023-01-25T10:01:42.046Z,100905.81
2023-01-25T10:04:42.482Z,100906.53
2023-01-25T10:07:21.753Z,100904.06
2023-01-25T10:09:57.981Z,100913.31
2023-01-25T10:12:26.868Z,100905.25
2023-01-25T10:14:54.471Z,100901.75
2023-01-25T10:17:29.070Z,100906.75
2023-01-25T10:20:17.532Z,100907.50
2023-01-25T10:22:53.170Z,100903.53
2023-01-25T10:25:24.820Z,100901.03
2023-01-25T10:28:00.084Z,100895.03
2023-01-25T10:30:40.018Z,100891.75
2023-01-25T10:33:26.508Z,100883.31
2023-01-25T10:35:55.124Z,100882.03
2023-01-25T10:38:38.807Z,100882.00
2023-01-25T10:41:21.491Z,100874.53
2023-01-25T10:43:48.139Z,100877.75
2023-01-25T10:46:21.679Z,100879.50
2023-01-25T10:48:48.482Z,100879.50
2023-01-25T10:51:33.135Z,100878.50
2023-01-25T10:54:05.787Z,100877.22
2023-01-25T10:56:38.725Z,100877.00
2023-01-25T10:59:15.398Z,100863.53
2023-01-25T11:01:42.277Z,100868.53
2023-01-25T11:04:35.487Z,100874.50
2023-01-25T11:07:06.231Z,100866.78
2023-01-25T11:09:38.288Z,100862.78
2023-01-25T11:12:19.005Z,100861.00
2023-01-25T11:14:50.112Z,100856.03
2023-01-25T11:17:30.439Z,100854.25
2023-01-25T11:20:19.724Z,100853.50
2023-01-25T11:22:51.809Z,100857.25
2023-01-25T11:25:34.585Z,100844.47
2023-01-25T11:28:18.009Z,100838.47
2023-01-25T11:30:44.940Z,100836.97
2023-01-25T11:33:13.516Z,100832.72
2023-01-25T11:36:14.689Z,100826.97
2023-01-25T11:38:58.988Z,100819.94
2023-01-25T11:41:36.841Z,100809.97
2023-01-25T11:44:33.947Z,100810.22
2023-01-25T11:47:18.959Z,100807.94
2023-01-25T11:50:24.643Z,100809.19
2023-01-25T11:53:04.910Z,100807.19
2023-01-25T11:55:39.103Z,100792.91
2023-01-25T11:58:10.427Z,100786.91
2023-01-25T12:01:09.478Z,100783.16
2023-01-25T12:03:52.417Z,100770.13
2023-01-25T12:06:21.881Z,100769.66
2023-01-25T12:09:16.471Z,100760.13
2023-01-25T12:12:05.792Z,100750.88
2023-01-25T12:15:20.073Z,100748.13
2023-01-25T12:18:07.520Z,100746.38
2023-01-25T12:21:05.839Z,100738.88
2023-01-25T12:23:45.096Z,100732.09
2023-01-25T12:26:20.578Z,100726.84
2023-01-25T12:29:16.825Z,100723.53
2023-01-25T12:31:57.143Z,100721.09
2023-01-25T12:34:33.257Z,100717.84
2023-01-25T12:37:18.593Z,100726.88
2023-01-25T12:40:00.003Z,100717.59
2023-01-25T12:42:47.629Z,100710.84
2023-01-25T12:45:25.133Z,100705.09
2023-01-25T12:48:02.133Z,100704.56
2023-01-25T12:50:35.611Z,100700.31
2023-01-25T12:53:13.305Z,100695.09
2023-01-25T12:55:40.786Z,100692.59
2023-01-25T12:58:37.012Z,100694.84
2023-01-25T13:01:26.000Z,100688.81
2023-01-25T13:04:21.918Z,100689.06
2023-01-25T13:07:09.928Z,100688.09
2023-01-25T13:09:52.077Z,100690.84
2023-01-25T13:12:18.816Z,100680.06
2023-01-25T13:14:45.440Z,100678.84
2023-01-25T13:17:34.831Z,100683.31
2023-01-25T13:20:05.319Z,100678.31
2023-01-25T13:22:44.340Z,100681.56
2023-01-25T13:25:16.644Z,100685.34
2023-01-25T13:27:43.407Z,100670.31
2023-01-25T13:30:16.194Z,100661.31
2023-01-25T13:32:51.737Z,100661.81
2023-01-25T13:35:38.509Z,100659.81
2023-01-25T13:38:18.294Z,100658.06
2023-01-25T13:40:45.059Z,100650.53
2023-01-25T13:43:11.618Z,100647.50
2023-01-25T13:45:41.078Z,100658.78
2023-01-25T13:48:21.991Z,100653.03
2023-01-25T13:50:55.585Z,100657.31
2023-01-25T13:53:24.283Z,100668.06
2023-01-25T13:55:56.381Z,100665.81
2023-01-25T13:58:24.678Z,100661.81
2023-01-25T14:00:59.876Z,100662.06
2023-01-25T14:03:35.712Z,100660.31
2023-01-25T14:06:04.513Z,100660.84
2023-01-25T14:08:31.909Z,100662.31
2023-01-25T14:10:58.797Z,100668.53
2023-01-25T14:13:25.541Z,100666.56
2023-01-25T14:16:04.429Z,100671.06
2023-01-25T14:18:33.990Z,100658.06
2023-01-25T14:21:29.951Z,100659.56
2023-01-25T14:24:09.243Z,100656.28
2023-01-25T14:26:38.143Z,100654.28
2023-01-25T14:29:31.929Z,100655.25
2023-01-25T14:31:59.886Z,100649.28
2023-01-25T14:34:27.014Z,100650.31
2023-01-25T14:37:14.253Z,100637.28
2023-01-25T14:39:40.937Z,100641.53
2023-01-25T14:42:07.838Z,100643.78
2023-01-25T14:44:34.730Z,100633.56
2023-01-25T14:47:20.029Z,100646.50
2023-01-25T14:49:46.537Z,100650.03
2023-01-25T14:52:16.523Z,100656.28
2023-01-25T14:55:01.594Z,100657.31
2023-01-25T14:57:42.333Z,100657.53
2023-01-25T15:00:23.994Z,100649.50
2023-01-25T15:02:59.289Z,100656.53
2023-01-25T15:05:27.566Z,100654.28
2023-01-25T15:08:13.109Z,100652.75
2023-01-25T15:10:56.667Z,100649.31
2023-01-25T15:13:28.427Z,100644.50
2023-01-25T15:16:05.093Z,100638.22
2023-01-25T15:18:53.903Z,100640.50
2023-01-25T15:21:40.934Z,100638.00
2023-01-25T15:24:11.936Z,100642.56
2023-01-25T15:26:40.198Z,100643.28
2023-01-25T15:29:15.290Z,100631.56
2023-01-25T15:31:42.558Z,100630.31
2023-01-25T15:34:27.217Z,100625.03
2023-01-25T15:36:53.919Z,100631.03
2023-01-25T15:39:20.629Z,100627.53
2023-01-25T15:41:48.142Z,100628.44
2023-01-25T15:44:15.006Z,100627.28
2023-01-25T15:46:45.021Z,100617.03
2023-01-25T15:49:18.890Z,100621.47
2023-01-25T15:51:45.885Z,100627.25
2023-01-25T15:54:12.430Z,100620.97
2023-01-25T15:56:41.676Z,100617.88
2023-01-25T15:59:14.636Z,100623.47
2023-01-25T16:01:41.315Z,100611.91
2023-01-25T16:04:10.807Z,100609.22
2023-01-25T16:06:42.051Z,100612.72
2023-01-25T16:09:14.737Z,100619.41
2023-01-25T16:11:41.381Z,100615.69
2023-01-25T16:14:07.990Z,100617.25
2023-01-25T16:16:38.370Z,100608.47
2023-01-25T16:19:04.899Z,100612.22
2023-01-25T16:21:31.463Z,100616.16
2023-01-25T16:23:58.231Z,100609.22
2023-01-25T16:26:27.635Z,100611.78
2023-01-25T16:28:54.929Z,100611.53
2023-01-25T16:31:32.591Z,100606.72
2023-01-25T16:34:00.957Z,100606.47
2023-01-25T16:36:28.056Z,100605.94
2023-01-25T16:38:54.778Z,100597.97
2023-01-25T16:41:21.393Z,100592.19
2023-01-25T16:43:49.218Z,100592.25
2023-01-25T16:46:18.073Z,100589.72
2023-01-25T16:48:46.081Z,100591.22
2023-01-25T16:51:22.031Z,100592.47
2023-01-25T16:53:50.381Z,100590.00
2023-01-25T16:56:22.133Z,100583.53
2023-01-25T16:58:49.824Z,100590.53
2023-01-25T17:01:18.190Z,100582.75
2023-01-25T17:03:45.024Z,100589.25
2023-01-25T17:06:23.608Z,100579.69
2023-01-25T17:08:50.669Z,100587.97
2023-01-25T17:11:21.630Z,100583.25
2023-01-25T17:13:53.267Z,100580.72
2023-01-25T17:16:21.356Z,100586.78
2023-01-25T17:18:48.345Z,100570.00
2023-01-25T17:21:15.302Z,100574.22
2023-01-25T17:23:42.690Z,100565.16
2023-01-25T17:26:12.300Z,100569.44
2023-01-25T17:28:39.165Z,100569.13
2023-01-25T17:31:06.820Z,100571.38
2023-01-25T17:33:33.555Z,100572.09
2023-01-25T17:36:04.866Z,100571.47
2023-01-25T17:38:31.380Z,100568.72
2023-01-25T17:41:03.123Z,100572.00
2023-01-25T17:43:29.795Z,100568.75
2023-01-25T17:45:56.331Z,100567.00
2023-01-25T17:48:23.008Z,100570.47
2023-01-25T17:51:00.500Z,100562.72
2023-01-25T17:53:27.169Z,100558.28
2023-01-25T17:55:54.812Z,100566.97
2023-01-25T17:58:21.589Z,100557.97
2023-01-25T18:00:48.243Z,100553.13
2023-01-25T18:03:14.833Z,100554.34
2023-01-25T18:05:41.549Z,100556.47
2023-01-25T18:08:08.096Z,100555.47
2023-01-25T18:10:34.742Z,100546.28
2023-01-25T18:13:04.752Z,100548.81
2023-01-25T18:15:32.676Z,100543.06
2023-01-25T18:18:00.137Z,100543.06
2023-01-25T18:20:26.809Z,100540.59
2023-01-25T18:22:54.057Z,100547.16
2023-01-25T18:25:35.537Z,100533.41
2023-01-25T18:28:02.856Z,100537.97
2023-01-25T18:30:33.956Z,100539.22
2023-01-25T18:33:01.723Z,100538.44
2023-01-25T18:35:29.383Z,100540.16
2023-01-25T18:37:56.032Z,100536.91
2023-01-25T18:40:22.759Z,100528.94
2023-01-25T18:42:49.539Z,100534.34
2023-01-25T18:45:16.169Z,100532.41
2023-01-25T18:47:42.786Z,100533.41
2023-01-25T18:50:10.375Z,100533.91
2023-01-25T18:52:36.939Z,100529.94
2023-01-25T18:55:03.725Z,100531.41
2023-01-25T18:57:30.261Z,100518.19
2023-01-25T18:59:58.964Z,100527.13
2023-01-25T19:02:27.074Z,100524.50
2023-01-25T19:04:53.827Z,100533.72
2023-01-25T19:07:20.427Z,100517.22
2023-01-25T19:09:48.069Z,100523.47
2023-01-25T19:12:14.644Z,100518.75
2023-01-25T19:14:41.325Z,100520.00
2023-01-25T19:17:08.494Z,100521.00
2023-01-25T19:19:35.055Z,100518.19
2023-01-25T19:22:01.709Z,100527.22
2023-01-25T19:24:28.633Z,100512.47
2023-01-25T19:26:55.308Z,100518.00
2023-01-25T19:29:22.036Z,100508.72
2023-01-25T19:31:48.803Z,100521.00
2023-01-25T19:34:15.442Z,100511.25
2023-01-25T19:36:49.424Z,100503.25
2023-01-25T19:39:17.013Z,100502.22
2023-01-25T19:41:43.575Z,100498.97
2023-01-25T19:44:12.943Z,100501.69
2023-01-25T19:46:39.684Z,100494.97
2023-01-25T19:49:08.573Z,100495.63
2023-01-25T19:51:38.164Z,100496.31
2023-01-25T19:54:11.233Z,100498.09
2023-01-25T19:56:40.608Z,100493.09
2023-01-25T19:59:16.869Z,100490.50
2023-01-25T20:01:44.257Z,100491.97
2023-01-25T20:04:13.399Z,100484.81
2023-01-25T20:06:40.325Z,100484.88
2023-01-25T20:09:06.963Z,100489.34
2023-01-25T20:11:34.585Z,100491.69
2023-01-25T20:14:04.408Z,100479.69
2023-01-25T20:16:33.310Z,100481.72
2023-01-25T20:19:00.769Z,100477.25
2023-01-25T20:21:28.973Z,100479.06
2023-01-25T20:24:00.480Z,100473.81
2023-01-25T20:26:33.451Z,100473.38
2023-01-25T20:29:00.947Z,100473.38
2023-01-25T20:31:33.877Z,100470.63
2023-01-25T20:34:08.083Z,100469.22
2023-01-25T20:36:35.894Z,100468.63
2023-01-25T20:39:02.992Z,100476.69
2023-01-25T20:41:29.988Z,100479.44
2023-01-25T20:44:02.367Z,100477.78
2023-01-25T20:46:33.705Z,100477.72
2023-01-25T20:49:01.715Z,100467.22
2023-01-25T20:51:28.445Z,100463.00
2023-01-25T20:53:55.199Z,100468.06
2023-01-25T20:56:22.540Z,100471.84
2023-01-25T20:58:52.837Z,100463.75
2023-01-25T21:01:30.748Z,100462.13
2023-01-25T21:03:58.467Z,100465.38
2023-01-25T21:06:27.199Z,100453.69
2023-01-25T21:08:54.481Z,100447.94
2023-01-25T21:11:23.186Z,100448.09
2023-01-25T21:13:49.754Z,100454.19
2023-01-25T21:16:21.743Z,100443.25
2023-01-25T21:18:50.773Z,100440.56
2023-01-25T21:21:27.725Z,100441.00
2023-01-25T21:23:57.028Z,100439.88
2023-01-25T21:26:25.695Z,100441.28
2023-01-25T21:28:54.656Z,100439.59
2023-01-25T21:31:23.376Z,100439.94
2023-01-25T21:33:50.244Z,100442.19
2023-01-25T21:36:17.964Z,100431.72
2023-01-25T21:38:46.827Z,100427.13
2023-01-25T21:41:15.594Z,100430.81
2023-01-25T21:44:00.714Z,100424.59
2023-01-25T21:46:28.309Z,100423.28
2023-01-25T21:49:15.999Z,100417.84
2023-01-25T21:51:51.238Z,100412.38
2023-01-25T21:54:20.445Z,100410.34
2023-01-25T21:56:48.592Z,100408.88
2023-01-25T21:59:15.454Z,100408.94
2023-01-25T22:01:43.246Z,100409.22
2023-01-25T22:04:10.636Z,100408.03
2023-01-25T22:06:38.725Z,100409.69
2023-01-25T22:09:05.988Z,100409.19
2023-01-25T22:11:32.901Z,100395.44
2023-01-25T22:13:59.512Z,100396.06
2023-01-25T22:16:26.283Z,100392.16
2023-01-25T22:18:53.632Z,100386.66
2023-01-25T22:21:25.166Z,100385.94
2023-01-25T22:23:52.183Z,100382.72
2023-01-25T22:26:21.297Z,100382.97
2023-01-25T22:28:56.325Z,100380.09
2023-01-25T22:31:28.516Z,100376.84
2023-01-25T22:33:55.952Z,100373.00
2023-01-25T22:36:24.725Z,100366.69
2023-01-25T22:38:51.611Z,100363.78
2023-01-25T22:41:20.380Z,100357.38
2023-01-25T22:43:47.230Z,100356.34
2023-01-25T22:46:20.297Z,100359.88
2023-01-25T22:48:47.287Z,100355.03
2023-01-25T22:51:17.551Z,100358.97
2023-01-25T22:53:44.321Z,100359.16
2023-01-25T22:56:15.907Z,100349.06
2023-01-25T22:58:44.595Z,100348.88
2023-01-25T23:01:20.455Z,100350.19
2023-01-25T23:03:48.520Z,100341.91
2023-01-25T23:06:17.790Z,100332.16
2023-01-25T23:08:45.241Z,100325.66
2023-01-25T23:11:17.234Z,100323.91
2023-01-25T23:14:03.242Z,100328.41
2023-01-25T23:16:30.464Z,100330.16
2023-01-25T23:18:57.804Z,100318.06
2023-01-25T23:21:27.331Z,100315.25
2023-01-25T23:23:55.433Z,100309.00
2023-01-25T23:26:23.108Z,100306.88
2023-01-25T23:28:52.054Z,100302.56
2023-01-25T23:31:21.582Z,100297.25
2023-01-25T23:33:54.670Z,100291.69
2023-01-25T23:36:22.947Z,100296.00
2023-01-25T23:38:50.298Z,100289.75
2023-01-25T23:41:18.524Z,100291.56
2023-01-25T23:43:45.980Z,100292.09
2023-01-25T23:46:15.896Z,100289.44
2023-01-25T23:48:43.739Z,100290.59
2023-01-25T23:51:11.236Z,100281.75
2023-01-25T23:53:39.289Z,100273.56
2023-01-25T23:56:08.831Z,100270.56
2023-01-25T23:58:37.440Z,100263.06
